sensor_id;sensor_type;location;lat;lon;timestamp;pressure;altitude;pressure_sealevel;temperature;humidity
21588;BME280;10956;48.878;13.316;2024-03-02T00:02:23;93199.38;;;6.87;100.00
21588;BME280;10956;48.878;13.316;2024-03-02T00:04:49;93196.50;;;6.88;100.00
21588;BME280;10956;48.878;13.316;2024-03-02T00:07:14;93193.34;;;6.91;100.00
21588;BME280;10956;48.878;13.316;2024-03-02T00:09:40;93186.78;;;6.89;100.00
21588;BME280;10956;48.878;13.316;2024-03-02T00:12:05;93193.59;;;6.90;100.00
21588;BME280;10956;48.878;13.316;2024-03-02T00:14:31;93188.91;;;6.87;100.00
21588;BME280;10956;48.878;13.316;2024-03-02T00:16:57;93187.34;;;6.86;100.00
21588;BME280;10956;48.878;13.316;2024-03-02T00:19:22;93186.03;;;6.83;100.00
21588;BME280;10956;48.878;13.316;2024-03-02T00:21:48;93191.00;;;6.85;100.00
21588;BME280;10956;48.878;13.316;2024-03-02T00:24:32;93182.34;;;6.84;100.00
21588;BME280;10956;48.878;13.316;2024-03-02T00:26:59;93181.56;;;6.89;100.00
21588;BME280;10956;48.878;13.316;2024-03-02T00:29:25;93183.66;;;6.87;100.00
21588;BME280;10956;48.878;13.316;2024-03-02T00:31:50;93181.06;;;6.82;100.00
21588;BME280;10956;48.878;13.316;2024-03-02T00:34:17;93195.19;;;6.80;100.00
21588;BME280;10956;48.878;13.316;2024-03-02T00:36:42;93189.97;;;6.80;100.00
21588;BME280;10956;48.878;13.316;2024-03-02T00:39:08;93192.06;;;6.78;100.00
21588;BME280;10956;48.878;13.316;2024-03-02T00:41:34;93200.97;;;6.77;100.00
21588;BME280;10956;48.878;13.316;2024-03-02T00:44:04;93196.25;;;6.74;100.00
21588;BME280;10956;48.878;13.316;2024-03-02T00:46:38;93193.66;;;6.74;100.00
21588;BME280;10956;48.878;13.316;2024-03-02T00:49:24;93198.34;;;6.72;100.00
21588;BME280;10956;48.878;13.316;2024-03-02T00:51:52;93201.50;;;6.69;100.00
21588;BME280;10956;48.878;13.316;2024-03-02T00:54:23;93200.47;;;6.70;100.00
21588;BME280;10956;48.878;13.316;2024-03-02T00:56:49;93201.25;;;6.71;100.00
21588;BME280;10956;48.878;13.316;2024-03-02T00:59:15;93191.81;;;6.75;100.00
21588;BME280;10956;48.878;13.316;2024-03-02T01:01:40;93202.81;;;6.77;100.00
21588;BME280;10956;48.878;13.316;2024-03-02T01:04:07;93199.66;;;6.80;100.00
21588;BME280;10956;48.878;13.316;2024-03-02T01:06:32;93199.13;;;6.83;100.00
21588;BME280;10956;48.878;13.316;2024-03-02T01:08:59;93197.84;;;6.75;100.00
21588;BME280;10956;48.878;13.316;2024-03-02T01:11:24;93195.22;;;6.70;100.00
21588;BME280;10956;48.878;13.316;2024-03-02T01:13:50;93196.25;;;6.74;100.00
21588;BME280;10956;48.878;13.316;2024-03-02T01:16:17;93203.59;;;6.72;100.00
21588;BME280;10956;48.878;13.316;2024-03-02T01:18:42;93194.94;;;6.77;100.00
21588;BME280;10956;48.878;13.316;2024-03-02T01:21:08;93200.19;;;6.77;100.00
21588;BME280;10956;48.878;13.316;2024-03-02T01:23:33;93195.72;;;6.77;100.00
21588;BME280;10956;48.878;13.316;2024-03-02T01:25:59;93194.16;;;6.82;100.00
21588;BME280;10956;48.878;13.316;2024-03-02T01:28:24;93200.44;;;6.80;100.00
21588;BME280;10956;48.878;13.316;2024-03-02T01:30:49;93200.16;;;6.82;100.00
21588;BME280;10956;48.878;13.316;2024-03-02T01:33:16;93197.31;;;6.78;100.00
21588;BME280;10956;48.878;13.316;2024-03-02T01:35:42;93203.31;;;6.79;100.00
21588;BME280;10956;48.878;13.316;2024-03-02T01:38:07;93196.78;;;6.82;100.00
21588;BME280;10956;48.878;13.316;2024-03-02T01:40:37;93202.00;;;6.87;100.00
21588;BME280;10956;48.878;13.316;2024-03-02T01:43:04;93200.16;;;6.87;100.00
21588;BME280;10956;48.878;13.316;2024-03-02T01:45:29;93193.06;;;6.93;100.00
21588;BME280;10956;48.878;13.316;2024-03-02T01:47:55;93194.66;;;6.89;100.00
21588;BME280;10956;48.878;13.316;2024-03-02T01:50:28;93199.91;;;6.84;100.00
21588;BME280;10956;48.878;13.316;2024-03-02T01:52:54;93185.75;;;6.85;100.00
21588;BME280;10956;48.878;13.316;2024-03-02T01:55:20;93193.09;;;6.83;100.00
21588;BME280;10956;48.878;13.316;2024-03-02T01:57:46;93184.47;;;6.82;100.00
21588;BME280;10956;48.878;13.316;2024-03-02T02:00:13;93182.91;;;6.76;100.00
21588;BME280;10956;48.878;13.316;2024-03-02T02:02:39;93187.34;;;6.75;100.00
21588;BME280;10956;48.878;13.316;2024-03-02T02:05:04;93176.88;;;6.80;100.00
21588;BME280;10956;48.878;13.316;2024-03-02T02:07:30;93170.59;;;6.82;100.00
21588;BME280;10956;48.878;13.316;2024-03-02T02:09:56;93171.66;;;6.75;100.00
21588;BME280;10956;48.878;13.316;2024-03-02T02:12:22;93181.06;;;6.76;100.00
21588;BME280;10956;48.878;13.316;2024-03-02T02:14:48;93176.34;;;6.78;100.00
21588;BME280;10956;48.878;13.316;2024-03-02T02:17:14;93174.78;;;6.77;100.00
21588;BME280;10956;48.878;13.316;2024-03-02T02:19:41;93177.13;;;6.79;100.00
21588;BME280;10956;48.878;13.316;2024-03-02T02:22:06;93169.56;;;6.77;100.00
21588;BME280;10956;48.878;13.316;2024-03-02T02:24:31;93174.50;;;6.84;100.00
21588;BME280;10956;48.878;13.316;2024-03-02T02:26:57;93163.25;;;6.78;100.00
21588;BME280;10956;48.878;13.316;2024-03-02T02:29:22;93155.66;;;6.77;100.00
21588;BME280;10956;48.878;13.316;2024-03-02T02:31:47;93155.94;;;6.75;100.00
21588;BME280;10956;48.878;13.316;2024-03-02T02:34:14;93157.75;;;6.80;100.00
21588;BME280;10956;48.878;13.316;2024-03-02T02:36:40;93153.31;;;6.80;100.00
21588;BME280;10956;48.878;13.316;2024-03-02T02:39:07;93148.31;;;6.84;100.00
21588;BME280;10956;48.878;13.316;2024-03-02T02:41:36;93143.88;;;6.85;100.00
21588;BME280;10956;48.878;13.316;2024-03-02T02:44:01;93155.13;;;6.85;100.00
21588;BME280;10956;48.878;13.316;2024-03-02T02:46:26;93145.97;;;6.83;100.00
21588;BME280;10956;48.878;13.316;2024-03-02T02:48:52;93145.97;;;6.83;100.00
21588;BME280;10956;48.878;13.316;2024-03-02T02:51:18;93143.09;;;6.84;100.00
21588;BME280;10956;48.878;13.316;2024-03-02T02:53:43;93144.41;;;6.82;100.00
21588;BME280;10956;48.878;13.316;2024-03-02T02:56:09;93137.84;;;6.84;100.00
21588;BME280;10956;48.878;13.316;2024-03-02T02:58:35;93137.06;;;6.84;100.00
21588;BME280;10956;48.878;13.316;2024-03-02T03:01:01;93132.59;;;6.84;100.00
21588;BME280;10956;48.878;13.316;2024-03-02T03:03:26;93131.81;;;6.84;100.00
21588;BME280;10956;48.878;13.316;2024-03-02T03:05:52;93137.34;;;6.77;100.00
21588;BME280;10956;48.878;13.316;2024-03-02T03:08:17;93136.56;;;6.76;100.00
21588;BME280;10956;48.878;13.316;2024-03-02T03:10:42;93140.50;;;6.74;100.00
21588;BME280;10956;48.878;13.316;2024-03-02T03:13:08;93143.41;;;6.67;100.00
21588;BME280;10956;48.878;13.316;2024-03-02T03:15:37;93143.91;;;6.69;100.00
21588;BME280;10956;48.878;13.316;2024-03-02T03:18:03;93151.25;;;6.72;100.00
21588;BME280;10956;48.878;13.316;2024-03-02T03:20:29;93151.25;;;6.72;100.00
21588;BME280;10956;48.878;13.316;2024-03-02T03:22:55;93150.44;;;6.72;100.00
21588;BME280;10956;48.878;13.316;2024-03-02T03:25:20;93145.22;;;6.72;100.00
21588;BME280;10956;48.878;13.316;2024-03-02T03:27:46;93147.56;;;6.73;100.00
21588;BME280;10956;48.878;13.316;2024-03-02T03:30:11;93143.91;;;6.74;100.00
21588;BME280;10956;48.878;13.316;2024-03-02T03:32:37;93150.19;;;6.73;100.00
21588;BME280;10956;48.878;13.316;2024-03-02T03:35:03;93154.88;;;6.76;100.00
21588;BME280;10956;48.878;13.316;2024-03-02T03:37:29;93154.88;;;6.76;100.00
21588;BME280;10956;48.878;13.316;2024-03-02T03:39:58;93152.28;;;6.76;100.00
21588;BME280;10956;48.878;13.316;2024-03-02T03:42:24;93146.25;;;6.76;100.00
21588;BME280;10956;48.878;13.316;2024-03-02T03:44:49;93154.09;;;6.76;100.00
21588;BME280;10956;48.878;13.316;2024-03-02T03:47:15;93145.47;;;6.75;100.00
21588;BME280;10956;48.878;13.316;2024-03-02T03:49:40;93148.59;;;6.77;100.00
21588;BME280;10956;48.878;13.316;2024-03-02T03:52:06;93148.06;;;6.80;100.00
21588;BME280;10956;48.878;13.316;2024-03-02T03:54:31;93152.78;;;6.84;100.00
21588;BME280;10956;48.878;13.316;2024-03-02T03:56:57;93156.44;;;6.83;100.00
21588;BME280;10956;48.878;13.316;2024-03-02T03:59:22;93150.16;;;6.78;100.00
21588;BME280;10956;48.878;13.316;2024-03-02T04:01:47;93148.06;;;6.80;100.00
21588;BME280;10956;48.878;13.316;2024-03-02T04:04:13;93156.44;;;6.83;100.00
21588;BME280;10956;48.878;13.316;2024-03-02T04:06:38;93146.75;;;6.83;100.00
21588;BME280;10956;48.878;13.316;2024-03-02T04:09:04;93149.09;;;6.85;100.00
21588;BME280;10956;48.878;13.316;2024-03-02T04:11:29;93155.66;;;6.82;100.00
21588;BME280;10956;48.878;13.316;2024-03-02T04:13:55;93154.88;;;6.82;100.00
21588;BME280;10956;48.878;13.316;2024-03-02T04:16:21;93148.59;;;6.77;100.00
21588;BME280;10956;48.878;13.316;2024-03-02T04:18:46;93151.22;;;6.77;100.00
21588;BME280;10956;48.878;13.316;2024-03-02T04:21:12;93151.75;;;6.79;100.00
21588;BME280;10956;48.878;13.316;2024-03-02T04:23:37;93153.31;;;6.75;100.00
21588;BME280;10956;48.878;13.316;2024-03-02T04:26:03;93161.72;;;6.72;100.00
21588;BME280;10956;48.878;13.316;2024-03-02T04:28:29;93160.66;;;6.73;100.00
21588;BME280;10956;48.878;13.316;2024-03-02T04:30:54;93163.53;;;6.77;100.00
21588;BME280;10956;48.878;13.316;2024-03-02T04:33:20;93173.75;;;6.73;100.00
21588;BME280;10956;48.878;13.316;2024-03-02T04:35:45;93167.47;;;6.74;100.00
21588;BME280;10956;48.878;13.316;2024-03-02T04:38:11;93173.22;;;6.76;100.00
21588;BME280;10956;48.878;13.316;2024-03-02T04:40:37;93169.28;;;6.74;100.00
21588;BME280;10956;48.878;13.316;2024-03-02T04:43:02;93166.94;;;6.72;100.00
21588;BME280;10956;48.878;13.316;2024-03-02T04:45:29;93170.63;;;6.71;100.00
21588;BME280;10956;48.878;13.316;2024-03-02T04:47:54;93175.84;;;6.71;100.00
21588;BME280;10956;48.878;13.316;2024-03-02T04:50:19;93170.09;;;6.74;100.00
21588;BME280;10956;48.878;13.316;2024-03-02T04:52:45;93180.56;;;6.74;100.00
21588;BME280;10956;48.878;13.316;2024-03-02T04:55:10;93176.88;;;6.75;100.00
21588;BME280;10956;48.878;13.316;2024-03-02T04:57:50;93180.56;;;6.74;100.00
21588;BME280;10956;48.878;13.316;2024-03-02T05:00:16;93179.50;;;6.80;100.00
21588;BME280;10956;48.878;13.316;2024-03-02T05:02:42;93175.03;;;6.81;100.00
21588;BME280;10956;48.878;13.316;2024-03-02T05:05:08;93182.38;;;6.79;100.00
21588;BME280;10956;48.878;13.316;2024-03-02T05:07:33;93185.25;;;6.77;100.00
21588;BME280;10956;48.878;13.316;2024-03-02T05:09:59;93183.44;;;6.73;100.00
21588;BME280;10956;48.878;13.316;2024-03-02T05:12:24;93187.88;;;6.77;100.00
21588;BME280;10956;48.878;13.316;2024-03-02T05:15:12;93180.03;;;6.77;100.00
21588;BME280;10956;48.878;13.316;2024-03-02T05:17:38;93189.97;;;6.75;100.00
21588;BME280;10956;48.878;13.316;2024-03-02T05:20:05;93188.66;;;6.73;100.00
21588;BME280;10956;48.878;13.316;2024-03-02T05:22:32;93189.19;;;6.75;100.00
21588;BME280;10956;48.878;13.316;2024-03-02T05:24:59;93179.25;;;6.77;100.00
21588;BME280;10956;48.878;13.316;2024-03-02T05:27:26;93180.03;;;6.77;100.00
21588;BME280;10956;48.878;13.316;2024-03-02T05:29:51;93188.16;;;6.76;100.00
21588;BME280;10956;48.878;13.316;2024-03-02T05:32:16;93196.25;;;6.74;100.00
21588;BME280;10956;48.878;13.316;2024-03-02T05:34:42;93181.88;;;6.72;100.00
21588;BME280;10956;48.878;13.316;2024-03-02T05:37:07;93188.69;;;6.68;100.00
21588;BME280;10956;48.878;13.316;2024-03-02T05:39:32;93191.31;;;6.68;100.00
21588;BME280;10956;48.878;13.316;2024-03-02T05:41:58;93191.81;;;6.70;100.00
21588;BME280;10956;48.878;13.316;2024-03-02T05:44:23;93191.31;;;6.68;100.00
21588;BME280;10956;48.878;13.316;2024-03-02T05:46:49;93196.78;;;6.71;100.00
21588;BME280;10956;48.878;13.316;2024-03-02T05:49:14;93198.91;;;6.69;100.00
21588;BME280;10956;48.878;13.316;2024-03-02T05:51:39;93193.66;;;6.69;100.00
21588;BME280;10956;48.878;13.316;2024-03-02T05:54:05;93203.34;;;6.69;100.00
21588;BME280;10956;48.878;13.316;2024-03-02T05:56:30;93203.06;;;6.70;100.00
21588;BME280;10956;48.878;13.316;2024-03-02T05:58:55;93196.78;;;6.71;100.00
21588;BME280;10956;48.878;13.316;2024-03-02T06:01:41;93201.22;;;6.76;100.00
21588;BME280;10956;48.878;13.316;2024-03-02T06:04:06;93205.16;;;6.73;100.00
21588;BME280;10956;48.878;13.316;2024-03-02T06:06:33;93203.06;;;6.75;100.00
21588;BME280;10956;48.878;13.316;2024-03-02T06:09:02;93204.63;;;6.76;100.00
21588;BME280;10956;48.878;13.316;2024-03-02T06:11:33;93217.72;;;6.82;100.00
21588;BME280;10956;48.878;13.316;2024-03-02T06:13:58;93216.66;;;6.83;100.00
21588;BME280;10956;48.878;13.316;2024-03-02T06:16:24;93218.22;;;6.89;100.00
21588;BME280;10956;48.878;13.316;2024-03-02T06:18:49;93217.16;;;6.90;100.00
21588;BME280;10956;48.878;13.316;2024-03-02T06:21:15;93219.25;;;6.93;100.00
21588;BME280;10956;48.878;13.316;2024-03-02T06:23:40;93227.63;;;6.95;100.00
21588;BME280;10956;48.878;13.316;2024-03-02T06:26:05;93221.88;;;6.98;100.00
21588;BME280;10956;48.878;13.316;2024-03-02T06:28:31;93221.31;;;7.01;100.00
21588;BME280;10956;48.878;13.316;2024-03-02T06:30:56;93224.19;;;7.04;100.00
21588;BME280;10956;48.878;13.316;2024-03-02T06:33:21;93229.16;;;7.11;100.00
21588;BME280;10956;48.878;13.316;2024-03-02T06:35:47;93226.00;;;7.14;100.00
21588;BME280;10956;48.878;13.316;2024-03-02T06:38:14;93228.09;;;7.12;100.00
21588;BME280;10956;48.878;13.316;2024-03-02T06:40:39;93220.75;;;7.14;100.00
21588;BME280;10956;48.878;13.316;2024-03-02T06:43:06;93221.28;;;7.16;100.00
21588;BME280;10956;48.878;13.316;2024-03-02T06:45:31;93226.47;;;7.26;100.00
21588;BME280;10956;48.878;13.316;2024-03-02T06:47:58;93225.41;;;7.32;100.00
21588;BME280;10956;48.878;13.316;2024-03-02T06:50:24;93226.41;;;7.41;100.00
21588;BME280;10956;48.878;13.316;2024-03-02T06:52:49;93224.25;;;7.54;100.00
21588;BME280;10956;48.878;13.316;2024-03-02T06:55:15;93234.44;;;7.60;100.00
21588;BME280;10956;48.878;13.316;2024-03-02T06:57:40;93239.41;;;7.67;100.00
21588;BME280;10956;48.878;13.316;2024-03-02T07:00:06;93231.47;;;7.77;100.00
21588;BME280;10956;48.878;13.316;2024-03-02T07:02:34;93227.78;;;7.83;100.00
21588;BME280;10956;48.878;13.316;2024-03-02T07:05:00;93230.09;;;7.90;100.00
21588;BME280;10956;48.878;13.316;2024-03-02T07:07:25;93236.63;;;7.92;100.00
21588;BME280;10956;48.878;13.316;2024-03-02T07:09:50;93229.50;;;7.98;100.00
21588;BME280;10956;48.878;13.316;2024-03-02T07:12:16;93235.47;;;8.08;100.00
21588;BME280;10956;48.878;13.316;2024-03-02T07:14:41;93239.63;;;8.15;100.00
21588;BME280;10956;48.878;13.316;2024-03-02T07:17:31;93238.84;;;8.14;100.00
21588;BME280;10956;48.878;13.316;2024-03-02T07:19:56;93250.13;;;8.15;100.00
21588;BME280;10956;48.878;13.316;2024-03-02T07:22:22;93252.25;;;8.13;100.00
21588;BME280;10956;48.878;13.316;2024-03-02T07:24:48;93252.25;;;8.13;100.00
21588;BME280;10956;48.878;13.316;2024-03-02T07:27:15;93260.63;;;8.15;100.00
21588;BME280;10956;48.878;13.316;2024-03-02T07:29:41;93256.16;;;8.15;100.00
21588;BME280;10956;48.878;13.316;2024-03-02T07:32:07;93263.22;;;8.20;100.00
21588;BME280;10956;48.878;13.316;2024-03-02T07:34:33;93282.88;;;8.22;100.00
21588;BME280;10956;48.878;13.316;2024-03-02T07:36:59;93283.19;;;8.16;100.00
21588;BME280;10956;48.878;13.316;2024-03-02T07:39:25;93284.50;;;8.13;100.00
21588;BME280;10956;48.878;13.316;2024-03-02T07:41:50;93282.66;;;8.14;100.00
21588;BME280;10956;48.878;13.316;2024-03-02T07:44:16;93291.34;;;8.09;100.00
21588;BME280;10956;48.878;13.316;2024-03-02T07:46:44;93297.91;;;8.12;100.00
21588;BME280;10956;48.878;13.316;2024-03-02T07:49:12;93291.63;;;8.07;100.00
21588;BME280;10956;48.878;13.316;2024-03-02T07:51:38;93296.34;;;8.10;100.00
21588;BME280;10956;48.878;13.316;2024-03-02T07:54:03;93304.69;;;8.18;100.00
21588;BME280;10956;48.878;13.316;2024-03-02T07:56:29;93304.13;;;8.26;100.00
21588;BME280;10956;48.878;13.316;2024-03-02T07:58:55;93308.03;;;8.28;100.00
21588;BME280;10956;48.878;13.316;2024-03-02T08:01:22;93306.19;;;8.29;100.00
21588;BME280;10956;48.878;13.316;2024-03-02T08:03:48;93304.63;;;8.33;100.00
21588;BME280;10956;48.878;13.316;2024-03-02T08:06:16;93306.16;;;8.39;100.00
21588;BME280;10956;48.878;13.316;2024-03-02T08:08:41;93311.88;;;8.46;100.00
21588;BME280;10956;48.878;13.316;2024-03-02T08:11:06;93314.44;;;8.56;100.00
21588;BME280;10956;48.878;13.316;2024-03-02T08:13:32;93324.63;;;8.63;100.00
21588;BME280;10956;48.878;13.316;2024-03-02T08:15:57;93315.69;;;8.64;100.00
21588;BME280;10956;48.878;13.316;2024-03-02T08:18:24;93313.34;;;8.62;100.00
21588;BME280;10956;48.878;13.316;2024-03-02T08:20:49;93313.88;;;8.59;100.00
21588;BME280;10956;48.878;13.316;2024-03-02T08:23:15;93305.97;;;8.64;100.00
21588;BME280;10956;48.878;13.316;2024-03-02T08:25:40;93308.00;;;8.72;100.00
21588;BME280;10956;48.878;13.316;2024-03-02T08:28:05;93315.06;;;8.77;100.00
21588;BME280;10956;48.878;13.316;2024-03-02T08:30:31;93310.03;;;8.81;100.00
21588;BME280;10956;48.878;13.316;2024-03-02T08:32:56;93318.63;;;8.91;100.00
21588;BME280;10956;48.878;13.316;2024-03-02T08:35:22;93312.50;;;9.01;100.00
21588;BME280;10956;48.878;13.316;2024-03-02T08:37:48;93316.53;;;9.17;100.00
21588;BME280;10956;48.878;13.316;2024-03-02T08:40:14;93312.31;;;9.21;100.00
21588;BME280;10956;48.878;13.316;2024-03-02T08:42:39;93315.34;;;9.33;100.00
21588;BME280;10956;48.878;13.316;2024-03-02T08:45:06;93312.66;;;9.38;100.00
21588;BME280;10956;48.878;13.316;2024-03-02T08:47:32;93312.16;;;9.36;100.00
21588;BME280;10956;48.878;13.316;2024-03-02T08:49:58;93318.63;;;9.44;100.00
21588;BME280;10956;48.878;13.316;2024-03-02T08:52:23;93323.50;;;9.56;100.00
21588;BME280;10956;48.878;13.316;2024-03-02T08:54:48;93314.22;;;9.63;100.00
21588;BME280;10956;48.878;13.316;2024-03-02T08:57:14;93315.38;;;9.76;99.79
21588;BME280;10956;48.878;13.316;2024-03-02T08:59:39;93316.81;;;9.87;99.48
21588;BME280;10956;48.878;13.316;2024-03-02T09:02:05;93309.88;;;9.96;98.65
21588;BME280;10956;48.878;13.316;2024-03-02T09:04:31;93306.44;;;10.20;97.99
21588;BME280;10956;48.878;13.316;2024-03-02T09:06:56;93302.72;;;10.40;96.64
21588;BME280;10956;48.878;13.316;2024-03-02T09:09:21;93298.94;;;10.64;95.32
21588;BME280;10956;48.878;13.316;2024-03-02T09:11:47;93292.72;;;10.74;94.76
21588;BME280;10956;48.878;13.316;2024-03-02T09:14:12;93290.72;;;10.85;93.53
21588;BME280;10956;48.878;13.316;2024-03-02T09:16:40;93292.84;;;10.83;92.34
21588;BME280;10956;48.878;13.316;2024-03-02T09:19:05;93287.47;;;10.74;93.13
21588;BME280;10956;48.878;13.316;2024-03-02T09:21:30;93287.09;;;10.81;93.29
21588;BME280;10956;48.878;13.316;2024-03-02T09:23:56;93287.31;;;10.98;92.87
21588;BME280;10956;48.878;13.316;2024-03-02T09:26:22;93284.31;;;11.05;91.61
21588;BME280;10956;48.878;13.316;2024-03-02T09:28:47;93289.53;;;11.23;91.25
21588;BME280;10956;48.878;13.316;2024-03-02T09:31:13;93287.47;;;11.34;90.50
21588;BME280;10956;48.878;13.316;2024-03-02T09:33:38;93286.78;;;11.28;88.84
21588;BME280;10956;48.878;13.316;2024-03-02T09:36:19;93285.41;;;11.17;89.29
21588;BME280;10956;48.878;13.316;2024-03-02T09:38:45;93288.31;;;11.02;91.35
21588;BME280;10956;48.878;13.316;2024-03-02T09:41:11;93289.06;;;10.89;92.37
21588;BME280;10956;48.878;13.316;2024-03-02T09:43:36;93286.00;;;10.82;92.21
21588;BME280;10956;48.878;13.316;2024-03-02T09:46:03;93283.53;;;10.72;92.43
21588;BME280;10956;48.878;13.316;2024-03-02T09:48:28;93284.44;;;10.81;92.75
21588;BME280;10956;48.878;13.316;2024-03-02T09:50:54;93282.81;;;10.85;92.74
21588;BME280;10956;48.878;13.316;2024-03-02T09:53:19;93280.09;;;10.90;92.73
21588;BME280;10956;48.878;13.316;2024-03-02T09:55:46;93279.50;;;10.93;91.97
21588;BME280;10956;48.878;13.316;2024-03-02T09:58:12;93282.06;;;10.98;91.47
21588;BME280;10956;48.878;13.316;2024-03-02T10:00:37;93286.00;;;11.14;91.39
21588;BME280;10956;48.878;13.316;2024-03-02T10:03:03;93284.44;;;11.13;90.58
21588;BME280;10956;48.878;13.316;2024-03-02T10:05:30;93287.31;;;10.98;90.69
21588;BME280;10956;48.878;13.316;2024-03-02T10:08:02;93282.91;;;10.93;91.89
21588;BME280;10956;48.878;13.316;2024-03-02T10:10:54;93289.69;;;11.13;91.78
21588;BME280;10956;48.878;13.316;2024-03-02T10:13:24;93294.78;;;11.23;91.11
21588;BME280;10956;48.878;13.316;2024-03-02T10:15:50;93281.13;;;11.21;90.79
21588;BME280;10956;48.878;13.316;2024-03-02T10:18:26;93279.56;;;11.34;90.25
21588;BME280;10956;48.878;13.316;2024-03-02T10:20:52;93278.00;;;11.47;89.17
21588;BME280;10956;48.878;13.316;2024-03-02T10:23:17;93280.34;;;11.48;89.26
21588;BME280;10956;48.878;13.316;2024-03-02T10:25:43;93291.31;;;11.42;89.65
21588;BME280;10956;48.878;13.316;2024-03-02T10:28:10;93284.84;;;11.48;89.18
21588;BME280;10956;48.878;13.316;2024-03-02T10:30:35;93272.75;;;11.60;88.68
21588;BME280;10956;48.878;13.316;2024-03-02T10:33:02;93280.84;;;11.64;89.42
21588;BME280;10956;48.878;13.316;2024-03-02T10:35:27;93282.03;;;11.72;89.50
21588;BME280;10956;48.878;13.316;2024-03-02T10:37:53;93269.22;;;11.65;90.16
21588;BME280;10956;48.878;13.316;2024-03-02T10:40:22;93277.22;;;11.60;91.20
21588;BME280;10956;48.878;13.316;2024-03-02T10:42:49;93264.91;;;11.55;91.29
21588;BME280;10956;48.878;13.316;2024-03-02T10:45:15;93261.00;;;11.25;92.92
21588;BME280;10956;48.878;13.316;2024-03-02T10:47:43;93263.06;;;11.28;93.48
21588;BME280;10956;48.878;13.316;2024-03-02T10:50:09;93266.47;;;11.29;93.68
21588;BME280;10956;48.878;13.316;2024-03-02T10:52:35;93255.06;;;11.33;94.28
21588;BME280;10956;48.878;13.316;2024-03-02T10:55:01;93249.69;;;11.39;94.21
21588;BME280;10956;48.878;13.316;2024-03-02T10:57:29;93248.13;;;11.38;93.72
21588;BME280;10956;48.878;13.316;2024-03-02T11:00:02;93250.16;;;11.27;94.33
21588;BME280;10956;48.878;13.316;2024-03-02T11:02:30;93245.94;;;11.12;95.71
21588;BME280;10956;48.878;13.316;2024-03-02T11:04:56;93240.47;;;10.95;96.92
21588;BME280;10956;48.878;13.316;2024-03-02T11:07:24;93231.84;;;10.89;97.88
21588;BME280;10956;48.878;13.316;2024-03-02T11:10:01;93235.94;;;10.82;98.53
21588;BME280;10956;48.878;13.316;2024-03-02T11:12:38;93235.53;;;10.75;98.25
21588;BME280;10956;48.878;13.316;2024-03-02T11:15:10;93236.13;;;10.72;97.96
21588;BME280;10956;48.878;13.316;2024-03-02T11:17:38;93235.13;;;10.67;97.25
21588;BME280;10956;48.878;13.316;2024-03-02T11:20:06;93219.13;;;10.64;96.92
21588;BME280;10956;48.878;13.316;2024-03-02T11:22:35;93226.81;;;10.60;98.04
21588;BME280;10956;48.878;13.316;2024-03-02T11:25:01;93217.25;;;10.64;97.76
21588;BME280;10956;48.878;13.316;2024-03-02T11:35:27;93202.84;;;10.76;94.92
21588;BME280;10956;48.878;13.316;2024-03-02T11:37:56;93193.78;;;10.82;93.93
21588;BME280;10956;48.878;13.316;2024-03-02T11:40:28;93192.63;;;10.88;93.24
21588;BME280;10956;48.878;13.316;2024-03-02T11:42:53;93190.66;;;10.93;92.47
21588;BME280;10956;48.878;13.316;2024-03-02T11:45:26;93190.88;;;10.97;92.20
21588;BME280;10956;48.878;13.316;2024-03-02T11:47:56;93185.69;;;11.06;92.25
21588;BME280;10956;48.878;13.316;2024-03-02T11:50:34;93183.66;;;11.16;92.65
21588;BME280;10956;48.878;13.316;2024-03-02T11:53:01;93183.56;;;11.21;94.33
21588;BME280;10956;48.878;13.316;2024-03-02T11:55:26;93185.78;;;11.42;94.36
21588;BME280;10956;48.878;13.316;2024-03-02T11:57:54;93176.38;;;11.63;93.55
21588;BME280;10956;48.878;13.316;2024-03-02T12:00:20;93169.44;;;11.67;93.48
21588;BME280;10956;48.878;13.316;2024-03-02T12:02:47;93164.63;;;11.69;94.77
21588;BME280;10956;48.878;13.316;2024-03-02T12:05:24;93163.75;;;11.87;95.02
21588;BME280;10956;48.878;13.316;2024-03-02T12:07:56;93155.94;;;12.05;95.61
21588;BME280;10956;48.878;13.316;2024-03-02T12:10:21;93149.97;;;12.13;95.31
21588;BME280;10956;48.878;13.316;2024-03-02T12:12:47;93149.88;;;12.04;95.00
21588;BME280;10956;48.878;13.316;2024-03-02T12:15:13;93152.47;;;11.95;94.82
21588;BME280;10956;48.878;13.316;2024-03-02T12:17:38;93155.81;;;11.87;94.93
21588;BME280;10956;48.878;13.316;2024-03-02T12:20:07;93141.53;;;11.88;94.79
21588;BME280;10956;48.878;13.316;2024-03-02T12:22:32;93148.38;;;11.89;94.54
21588;BME280;10956;48.878;13.316;2024-03-02T12:24:58;93139.69;;;11.89;93.96
21588;BME280;10956;48.878;13.316;2024-03-02T12:27:23;93139.97;;;11.87;94.31
21588;BME280;10956;48.878;13.316;2024-03-02T12:29:49;93145.03;;;11.98;93.59
21588;BME280;10956;48.878;13.316;2024-03-02T12:32:15;93141.56;;;12.11;93.03
21588;BME280;10956;48.878;13.316;2024-03-02T12:34:40;93140.22;;;12.22;92.33
21588;BME280;10956;48.878;13.316;2024-03-02T12:37:05;93128.94;;;12.30;91.33
21588;BME280;10956;48.878;13.316;2024-03-02T12:39:31;93140.16;;;12.36;92.06
21588;BME280;10956;48.878;13.316;2024-03-02T12:41:58;93137.22;;;12.37;92.14
21588;BME280;10956;48.878;13.316;2024-03-02T12:44:23;93131.94;;;12.37;92.66
21588;BME280;10956;48.878;13.316;2024-03-02T12:46:48;93133.66;;;12.42;91.96
21588;BME280;10956;48.878;13.316;2024-03-02T12:49:15;93127.00;;;12.44;91.62
21588;BME280;10956;48.878;13.316;2024-03-02T12:51:46;93129.53;;;12.49;91.32
21588;BME280;10956;48.878;13.316;2024-03-02T12:54:17;93130.00;;;12.51;91.17
21588;BME280;10956;48.878;13.316;2024-03-02T12:56:42;93127.66;;;12.50;91.16